Time;durP1;ratioP1;P1;durP2;ratioP2;P2;SDS_P1;SDS_P2;PMS_P1;PMS_P2;Temp;Humidity;BMP_temperature;BMP_pressure;BME280_temperature;BME280_humidity;BME280_pressure;Samples;Min_cycle;Max_cycle;Signal;HPM_P1;HPM_P2
2022/10/07 00:00:58;;;;;;;19.53;12.63;;;;;;;11.16;96.00;101755.05;1471548;87;21271;-77
2022/10/07 00:03:26;;;;;;;15.50;11.73;;;;;;;11.17;96.78;101756.75;1479670;87;21538;-78
2022/10/07 00:06:08;;;;;;;20.93;12.67;;;;;;;11.19;96.84;101753.51;1483388;87;21368;-78
2022/10/07 00:08:37;;;;;;;17.23;11.67;;;;;;;11.19;97.18;101757.48;1482872;87;21462;-78
2022/10/07 00:11:14;;;;;;;18.77;10.90;;;;;;;11.18;97.00;101751.80;1476699;87;21294;-78
2022/10/07 00:13:43;;;;;;;18.87;12.27;;;;;;;11.21;96.74;101756.02;1489439;87;21426;-77
2022/10/07 00:16:16;;;;;;;17.67;11.97;;;;;;;11.23;96.86;101760.24;1460371;87;21441;-77
2022/10/07 00:18:44;;;;;;;18.53;10.97;;;;;;;11.25;96.87;101752.19;1477921;87;21426;-78
2022/10/07 00:21:14;;;;;;;17.97;11.20;;;;;;;11.24;96.60;101751.31;1482803;87;21367;-79
2022/10/07 00:23:44;;;;;;;16.53;11.63;;;;;;;11.28;96.19;101751.45;1480564;87;21926;-78
2022/10/07 00:26:16;;;;;;;15.53;11.37;;;;;;;11.26;96.10;101756.52;1461712;87;21464;-78
2022/10/07 00:28:43;;;;;;;13.60;10.87;;;;;;;11.27;95.51;101752.89;1460265;89;22343;-78
2022/10/07 00:31:18;;;;;;;14.00;10.30;;;;;;;11.29;95.80;101757.11;1453090;89;22196;-77
2022/10/07 00:33:46;;;;;;;15.63;10.80;;;;;;;11.33;95.46;101757.70;1446010;89;21412;-77
2022/10/07 00:36:18;;;;;;;14.83;10.37;;;;;;;11.32;94.97;101749.89;1454908;89;21833;-78
2022/10/07 00:39:01;;;;;;;21.03;12.13;;;;;;;11.29;94.56;101741.20;1484033;86;21278;-78
2022/10/07 00:41:33;;;;;;;17.07;10.97;;;;;;;11.28;94.42;101742.19;1469026;88;22089;-77
2022/10/07 00:44:28;;;;;;;16.33;11.23;;;;;;;11.23;94.19;101739.05;1488856;87;22041;-78
2022/10/07 00:46:59;;;;;;;16.77;11.60;;;;;;;11.14;94.41;101733.14;1484313;87;21448;-78
2022/10/07 00:49:29;;;;;;;20.77;12.00;;;;;;;11.11;94.09;101741.33;1480778;87;22313;-77
2022/10/07 00:51:57;;;;;;;20.27;12.23;;;;;;;11.11;93.88;101741.33;1472926;86;21366;-76
2022/10/07 00:54:24;;;;;;;24.77;12.07;;;;;;;11.11;93.71;101742.66;1486934;87;22243;-77
2022/10/07 00:56:52;;;;;;;17.93;10.90;;;;;;;11.10;93.52;101733.48;1480225;87;22446;-77
2022/10/07 00:59:20;;;;;;;16.27;11.00;;;;;;;11.05;93.60;101732.54;1497594;87;22290;-78
2022/10/07 01:01:47;;;;;;;16.07;10.53;;;;;;;11.00;93.74;101730.23;1487887;87;22445;-77
2022/10/07 01:04:14;;;;;;;20.17;11.20;;;;;;;11.00;93.92;101727.58;1495115;87;21448;-76
2022/10/07 01:06:42;;;;;;;14.67;10.60;;;;;;;10.97;94.11;101723.84;1488629;87;21306;-77
2022/10/07 01:09:10;;;;;;;14.43;10.50;;;;;;;10.95;94.31;101718.30;1480381;87;21309;-77
2022/10/07 01:11:52;;;;;;;18.13;10.40;;;;;;;10.96;94.38;101723.95;1478947;87;21347;-77
2022/10/07 01:15:00;;;;;;;16.30;11.23;;;;;;;10.99;94.82;101723.72;1499821;87;22366;-78
2022/10/07 01:17:38;;;;;;;16.47;11.23;;;;;;;11.00;94.82;101721.45;1455221;88;21731;-77
2022/10/07 01:20:22;;;;;;;16.30;11.30;;;;;;;11.02;94.90;101722.19;1455660;89;21524;-77
2022/10/07 01:23:15;;;;;;;19.57;11.17;;;;;;;11.02;94.02;101716.39;1446649;89;21576;-78
2022/10/07 01:25:53;;;;;;;18.13;10.97;;;;;;;10.99;93.84;101721.06;1484861;88;21572;-78
2022/10/07 01:28:29;;;;;;;17.30;11.10;;;;;;;10.91;93.99;101716.86;1477106;88;21517;-77
2022/10/07 01:31:00;;;;;;;16.20;10.10;;;;;;;10.86;95.66;101712.40;1479721;87;22223;-78
2022/10/07 01:33:31;;;;;;;14.53;10.53;;;;;;;10.81;97.56;101712.25;1484735;87;22178;-78
2022/10/07 01:36:13;;;;;;;13.53;10.23;;;;;;;10.76;97.96;101705.62;1483647;88;22292;-78
2022/10/07 01:38:49;;;;;;;13.63;10.10;;;;;;;10.73;100.00;101706.73;1486885;87;21573;-78
2022/10/07 01:41:20;;;;;;;12.03;9.00;;;;;;;10.72;100.00;101707.66;1471784;88;21310;-78
2022/10/07 01:43:51;;;;;;;14.43;9.20;;;;;;;10.78;100.00;101709.84;1485212;86;22180;-78
2022/10/07 01:46:25;;;;;;;15.03;9.30;;;;;;;10.84;100.00;101705.88;1488790;87;21354;-78
2022/10/07 01:48:53;;;;;;;13.97;9.03;;;;;;;10.89;100.00;101704.22;1505416;86;21349;-78
2022/10/07 01:51:24;;;;;;;12.77;8.57;;;;;;;10.98;100.00;101712.77;1498565;86;22232;-77
2022/10/07 01:54:13;;;;;;;16.27;9.40;;;;;;;11.05;100.00;101708.69;1495844;87;21442;-77
2022/10/07 01:56:57;;;;;;;16.43;10.43;;;;;;;11.11;100.00;101699.42;1481571;88;21485;-77
2022/10/07 02:00:07;;;;;;;13.80;9.73;;;;;;;11.17;100.00;101698.94;1491540;87;21640;-78
2022/10/07 02:03:04;;;;;;;20.47;9.13;;;;;;;11.23;100.00;101701.11;1480732;87;22184;-77
2022/10/07 02:06:00;;;;;;;16.80;10.60;;;;;;;11.27;100.00;101703.86;1490802;87;21394;-77
2022/10/07 02:08:42;;;;;;;19.17;11.27;;;;;;;11.34;100.00;101713.52;1477875;87;22524;-78
2022/10/07 02:11:30;;;;;;;12.80;9.57;;;;;;;11.39;100.00;101710.83;1453130;89;21397;-77
2022/10/07 02:14:17;;;;;;;22.13;10.37;;;;;;;11.42;100.00;101711.08;1459021;89;21537;-76
2022/10/07 02:16:51;;;;;;;12.40;9.60;;;;;;;11.42;100.00;101711.08;1500719;87;21323;-77
2022/10/07 02:19:38;;;;;;;13.20;9.33;;;;;;;11.43;100.00;101710.13;1490940;86;22386;-77
2022/10/07 02:22:07;;;;;;;18.20;9.30;;;;;;;11.42;100.00;101707.97;1502264;86;21447;-77
2022/10/07 02:24:37;;;;;;;13.90;10.27;;;;;;;11.42;100.00;101706.64;1491701;87;22374;-77
2022/10/07 02:27:12;;;;;;;16.02;9.55;;;;;;;11.46;100.00;101713.86;1490559;86;21472;-77
2022/10/07 02:29:42;;;;;;;18.30;10.57;;;;;;;11.48;100.00;101718.57;1467572;89;21448;-77
2022/10/07 02:32:14;;;;;;;19.10;9.70;;;;;;;11.45;100.00;101715.67;1460650;89;21375;-78
2022/10/07 02:34:44;;;;;;;11.47;8.63;;;;;;;11.41;100.00;101723.49;1468161;88;22359;-78
2022/10/07 02:37:23;;;;;;;18.00;9.85;;;;;;;11.35;100.00;101723.14;1440181;89;21323;-77
2022/10/07 02:39:54;;;;;;;15.93;9.43;;;;;;;11.27;100.00;101720.59;1477688;88;23254;-77
2022/10/07 02:42:41;;;;;;;14.68;9.28;;;;;;;11.27;100.00;101721.09;1466928;88;21352;-77
2022/10/07 02:45:23;;;;;;;22.43;10.03;;;;;;;11.24;100.00;101718.19;1483145;87;21826;-77
2022/10/07 02:47:56;;;;;;;23.43;10.03;;;;;;;11.24;100.00;101723.49;1481132;87;21479;-77
2022/10/07 02:50:27;;;;;;;14.80;9.00;;;;;;;11.20;100.00;101723.38;1505853;86;22280;-77
2022/10/07 02:52:55;;;;;;;15.97;9.33;;;;;;;11.15;100.00;101724.70;1480139;86;21496;-77
2022/10/07 02:55:25;;;;;;;17.03;9.70;;;;;;;11.14;100.00;101733.62;1484915;86;22213;-77
2022/10/07 02:57:57;;;;;;;12.78;8.63;;;;;;;11.10;100.00;101729.02;1497382;87;21308;-77
2022/10/07 03:00:29;;;;;;;18.00;9.27;;;;;;;11.07;100.00;101730.11;1478558;87;21361;-77
2022/10/07 03:03:02;;;;;;;14.07;8.87;;;;;;;11.05;100.00;101728.08;1486594;87;21376;-77
2022/10/07 03:05:31;;;;;;;13.43;8.97;;;;;;;11.03;100.00;101719.88;1505017;86;21363;-77
2022/10/07 03:08:03;;;;;;;15.07;8.90;;;;;;;11.01;100.00;101727.94;1486027;86;21302;-77
2022/10/07 03:10:31;;;;;;;18.27;8.73;;;;;;;11.00;100.00;101728.06;1501371;86;22328;-77
2022/10/07 03:12:58;;;;;;;15.40;9.50;;;;;;;10.97;100.00;101721.20;1490724;87;21394;-76
2022/10/07 03:15:26;;;;;;;17.70;8.30;;;;;;;10.92;100.00;101715.89;1493760;87;21404;-77
2022/10/07 03:17:53;;;;;;;17.47;9.33;;;;;;;10.90;100.00;101722.62;1490042;87;21360;-76
2022/10/07 03:20:21;;;;;;;15.23;9.03;;;;;;;10.84;100.00;101723.94;1487897;88;21389;-77
2022/10/07 03:22:48;;;;;;;15.40;10.43;;;;;;;10.79;100.00;101724.79;1482333;88;21375;-77
2022/10/07 03:25:16;;;;;;;18.23;8.80;;;;;;;10.76;100.00;101722.38;1483731;88;21367;-77
2022/10/07 03:27:43;;;;;;;19.23;9.67;;;;;;;10.72;100.00;101717.42;1470442;88;21301;-77
2022/10/07 03:30:11;;;;;;;18.57;8.83;;;;;;;10.70;100.00;101719.33;1480598;87;21368;-76
2022/10/07 03:32:40;;;;;;;14.87;9.77;;;;;;;10.70;99.85;101717.52;1467936;88;21449;-75
2022/10/07 03:35:07;;;;;;;13.27;9.50;;;;;;;10.71;99.64;101715.74;1501345;87;22226;-76
2022/10/07 03:37:35;;;;;;;17.27;9.53;;;;;;;10.65;99.61;101719.70;1506292;87;21500;-76
2022/10/07 03:40:04;;;;;;;11.27;9.27;;;;;;;10.58;99.57;101716.66;1494142;87;21330;-76
2022/10/07 03:42:31;;;;;;;14.87;10.27;;;;;;;10.56;99.37;101714.63;1489552;87;21315;-76
2022/10/07 03:44:58;;;;;;;13.90;9.87;;;;;;;10.55;99.32;101716.05;1489662;87;21338;-76
2022/10/07 03:47:26;;;;;;;12.27;8.57;;;;;;;10.50;99.46;101708.92;1473316;88;22265;-76
2022/10/07 03:49:55;;;;;;;17.23;9.43;;;;;;;10.45;99.52;101720.37;1468534;88;21391;-76
2022/10/07 03:52:22;;;;;;;18.00;10.17;;;;;;;10.41;99.90;101717.08;1483457;87;21301;-76
2022/10/07 03:54:51;;;;;;;15.97;10.60;;;;;;;10.37;100.00;101713.83;1483802;87;21359;-76
2022/10/07 04:00:05;;;;;;;14.17;9.80;;;;;;;10.27;100.00;101714.17;1471370;88;22297;-76
2022/10/07 04:02:32;;;;;;;16.67;11.13;;;;;;;10.23;100.00;101719.27;1501034;87;21259;-76
2022/10/07 04:04:59;;;;;;;20.20;9.90;;;;;;;10.18;100.00;101720.09;1480339;88;21851;-76
2022/10/07 04:07:26;;;;;;;16.97;9.80;;;;;;;10.13;100.00;101719.61;1484224;87;21426;-76
2022/10/07 04:09:53;;;;;;;23.93;10.23;;;;;;;10.09;100.00;101722.09;1497312;87;22269;-75
2022/10/07 04:12:20;;;;;;;16.70;10.67;;;;;;;10.10;100.00;101724.64;1505435;86;22298;-79
2022/10/07 04:14:47;;;;;;;16.20;10.37;;;;;;;10.12;100.00;101721.86;1494443;87;22298;-75
2022/10/07 04:17:20;;;;;;;13.50;10.20;;;;;;;10.13;100.00;101714.31;1499861;87;21367;-76
2022/10/07 04:19:48;;;;;;;16.87;10.33;;;;;;;10.13;100.00;101727.05;1500542;87;21411;-75
2022/10/07 04:22:14;;;;;;;15.23;10.53;;;;;;;10.15;100.00;101713.70;1483349;87;21353;-76
2022/10/07 04:24:41;;;;;;;18.63;11.13;;;;;;;10.12;100.00;101712.61;1479427;87;21332;-76
2022/10/07 04:27:09;;;;;;;15.53;9.83;;;;;;;10.08;100.00;101713.31;1487407;87;21553;-77
2022/10/07 04:29:36;;;;;;;11.80;8.87;;;;;;;10.08;100.00;101715.13;1477226;88;21459;-77
2022/10/07 04:32:03;;;;;;;16.47;10.53;;;;;;;10.06;100.00;101707.28;1484546;87;21617;-77
2022/10/07 04:34:30;;;;;;;17.10;10.83;;;;;;;10.07;100.00;101709.45;1483698;87;21527;-76
2022/10/07 04:36:59;;;;;;;15.83;9.70;;;;;;;10.09;100.00;101711.03;1483460;88;22456;-76
2022/10/07 04:39:26;;;;;;;17.40;9.87;;;;;;;10.11;100.00;101712.25;1483147;88;21397;-76
2022/10/07 04:41:53;;;;;;;12.57;8.60;;;;;;;10.13;100.00;101718.28;1481681;87;21461;-76
2022/10/07 04:44:20;;;;;;;14.43;9.77;;;;;;;10.13;100.00;101718.28;1490834;87;21571;-76
2022/10/07 04:46:47;;;;;;;15.20;9.30;;;;;;;10.09;100.00;101712.83;1482634;87;22351;-76
2022/10/07 04:49:14;;;;;;;11.33;9.23;;;;;;;10.06;100.00;101713.06;1477427;88;22304;-76
2022/10/07 04:51:41;;;;;;;17.03;9.93;;;;;;;10.04;100.00;101716.29;1503525;87;21475;-76
2022/10/07 04:54:08;;;;;;;17.63;9.63;;;;;;;10.07;100.00;101717.38;1482245;87;21557;-76
2022/10/07 04:56:35;;;;;;;15.57;8.80;;;;;;;10.11;100.00;101714.41;1484672;88;21317;-76
2022/10/07 04:59:03;;;;;;;18.77;10.03;;;;;;;10.17;100.00;101721.05;1480384;87;21371;-76
2022/10/07 05:01:29;;;;;;;17.20;9.33;;;;;;;10.17;100.00;101715.28;1490666;87;21286;-76
2022/10/07 05:03:58;;;;;;;16.87;9.97;;;;;;;10.16;100.00;101722.02;1492996;87;21343;-76
2022/10/07 05:06:25;;;;;;;23.97;9.53;;;;;;;10.17;100.00;101717.09;1489967;87;21412;-75
2022/10/07 05:08:53;;;;;;;18.17;9.53;;;;;;;10.21;100.00;101721.18;1485343;87;21432;-83
2022/10/07 05:11:20;;;;;;;16.33;9.90;;;;;;;10.22;100.00;101724.21;1489173;86;21326;-80
2022/10/07 05:13:47;;;;;;;16.47;9.97;;;;;;;10.22;100.00;101724.21;1487801;86;22399;-79
2022/10/07 05:16:14;;;;;;;15.03;8.93;;;;;;;10.23;100.00;101724.56;1501255;87;22178;-79
2022/10/07 05:18:41;;;;;;;16.53;10.03;;;;;;;10.29;100.00;101732.08;1492551;87;21387;-83
2022/10/07 05:21:09;;;;;;;18.97;10.43;;;;;;;10.33;100.00;101731.39;1485583;88;21378;-83
2022/10/07 05:23:36;;;;;;;14.70;10.03;;;;;;;10.36;100.00;101723.22;1446339;87;21482;-78
2022/10/07 05:26:12;;;;;;;14.70;8.97;;;;;;;10.42;100.00;101729.86;1479761;87;21460;-79
2022/10/07 05:28:35;;;;;;;14.17;9.30;;;;;;;10.46;100.00;101731.30;1474626;88;21460;-79
2022/10/07 05:31:07;;;;;;;14.73;10.07;;;;;;;10.47;100.00;101738.28;1488371;87;21387;-79
2022/10/07 05:33:35;;;;;;;13.27;9.77;;;;;;;10.46;100.00;101733.95;1479961;88;21505;-79
2022/10/07 05:36:04;;;;;;;25.93;9.87;;;;;;;10.48;100.00;101734.69;1487573;88;21409;-80
2022/10/07 05:38:32;;;;;;;19.37;9.00;;;;;;;10.50;100.00;101734.95;1482100;88;21979;-79
2022/10/07 05:41:04;;;;;;;15.30;9.70;;;;;;;10.53;100.00;101733.84;1478287;88;21365;-80
2022/10/07 05:43:35;;;;;;;14.90;10.13;;;;;;;10.52;100.00;101733.00;1478456;88;21416;-79
2022/10/07 05:46:12;;;;;;;21.90;10.47;;;;;;;10.57;100.00;101726.89;1487473;88;21541;-80
2022/10/07 05:48:39;;;;;;;13.03;9.57;;;;;;;10.65;100.00;101728.13;1469394;88;22495;-80
2022/10/07 05:51:07;;;;;;;17.33;9.47;;;;;;;10.74;100.00;101729.59;1480733;88;21431;-78
2022/10/07 05:53:34;;;;;;;19.73;9.97;;;;;;;10.81;100.00;101729.47;1487214;88;21460;-79
2022/10/07 05:56:06;;;;;;;13.83;9.80;;;;;;;10.88;100.00;101726.38;1485719;88;21394;-80
2022/10/07 05:58:35;;;;;;;15.90;9.93;;;;;;;11.02;100.00;101734.10;1482847;86;21990;-80
2022/10/07 06:01:05;;;;;;;20.43;10.57;;;;;;;11.15;100.00;101730.84;1405007;87;21220;-80
2022/10/07 06:03:33;;;;;;;15.25;10.05;;;;;;;11.24;100.00;101731.93;1414957;87;21397;-79
2022/10/07 06:06:00;;;;;;;17.43;9.77;;;;;;;11.37;100.00;101733.99;1419268;87;21383;-79
2022/10/07 06:08:28;;;;;;;17.37;10.93;;;;;;;11.46;100.00;101729.77;1419474;87;22158;-80
2022/10/07 06:13:53;;;;;;;16.20;9.07;;;;;;;11.67;100.00;101735.16;1577659;87;21332;-79
2022/10/07 06:16:21;;;;;;;15.63;9.63;;;;;;;11.81;100.00;101738.87;1416890;87;21624;-79
2022/10/07 06:18:51;;;;;;;18.10;9.60;;;;;;;11.92;100.00;101733.58;1461500;87;22811;-80
2022/10/07 06:21:19;;;;;;;13.50;8.73;;;;;;;12.07;100.00;101742.09;1576368;87;21458;-81
2022/10/07 06:23:50;;;;;;;13.37;9.27;;;;;;;12.21;100.00;101741.46;1439982;87;21397;-79
2022/10/07 06:26:20;;;;;;;13.73;9.40;;;;;;;12.32;100.00;101737.44;1489987;87;21367;-81
2022/10/07 06:28:47;;;;;;;12.73;8.23;;;;;;;12.42;100.00;101745.82;1477486;87;21374;-81
2022/10/07 06:31:23;;;;;;;11.33;8.47;;;;;;;12.57;100.00;101733.10;1486612;87;21411;-80
2022/10/07 06:33:52;;;;;;;14.40;9.47;;;;;;;12.69;99.66;101740.98;1478854;87;22165;-81
2022/10/07 06:36:19;;;;;;;12.13;8.77;;;;;;;12.85;99.60;101734.24;1410436;87;21323;-80
2022/10/07 06:38:49;;;;;;;11.83;8.33;;;;;;;13.00;99.07;101734.74;1411195;87;21313;-81
2022/10/07 06:41:18;;;;;;;11.70;8.95;;;;;;;13.15;98.58;101739.72;1440446;89;21494;-81
2022/10/07 06:43:45;;;;;;;24.50;9.17;;;;;;;13.24;97.32;101729.64;1435029;91;21442;-82
2022/10/07 06:46:16;;;;;;;11.77;8.33;;;;;;;13.34;96.81;101734.52;1433911;91;21398;-81
2022/10/07 06:48:45;;;;;;;19.73;9.40;;;;;;;13.40;94.63;101733.98;1441481;90;21479;-81
2022/10/07 06:51:17;;;;;;;10.97;7.57;;;;;;;13.52;95.43;101734.72;1431368;90;22046;-81
2022/10/07 06:53:44;;;;;;;12.70;8.30;;;;;;;13.58;93.82;101727.56;1431322;90;21474;-79
2022/10/07 06:56:13;;;;;;;11.43;8.43;;;;;;;13.72;94.02;101734.30;1438121;89;21529;-80
2022/10/07 06:58:42;;;;;;;12.30;7.87;;;;;;;13.87;93.84;101728.13;1454968;89;21664;-80
2022/10/07 07:01:11;;;;;;;11.67;8.37;;;;;;;13.98;92.11;101727.51;1449405;89;21382;-81
2022/10/07 07:03:39;;;;;;;12.27;7.53;;;;;;;14.14;92.67;101728.77;1452660;89;21626;-81
2022/10/07 07:06:09;;;;;;;12.97;7.40;;;;;;;14.36;93.04;101731.16;1453108;89;21567;-81
2022/10/07 07:08:39;;;;;;;17.15;9.98;;;;;;;14.50;91.03;101729.03;1446448;89;21383;-81
2022/10/07 07:13:58;;;;;;;10.07;7.10;;;;;;;14.66;88.51;101724.84;1450978;89;22433;-82
2022/10/07 07:16:26;;;;;;;13.03;7.30;;;;;;;14.79;88.62;101719.23;1454453;89;21472;-82
2022/10/07 07:18:55;;;;;;;15.47;7.30;;;;;;;15.02;89.69;101729.06;1458673;89;21678;-82
2022/10/07 07:21:24;;;;;;;11.90;7.17;;;;;;;15.06;83.19;101728.27;1449261;89;21464;-81
2022/10/07 07:23:52;;;;;;;9.07;6.40;;;;;;;15.16;84.64;101726.89;1464492;89;21302;-80
2022/10/07 07:26:19;;;;;;;10.30;6.87;;;;;;;15.21;83.34;101721.47;1452636;89;21552;-82
2022/10/07 07:29:03;;;;;;;9.87;6.57;;;;;;;15.33;84.35;101721.66;1458900;89;21546;-82
2022/10/07 07:31:33;;;;;;;12.73;6.97;;;;;;;15.25;80.72;101722.88;1428699;89;22822;-81
2022/10/07 07:34:06;;;;;;;10.23;6.70;;;;;;;15.33;81.60;101718.98;1447627;89;21442;-80
2022/10/07 07:36:38;;;;;;;12.17;7.03;;;;;;;15.47;82.51;101712.80;1447276;89;21345;-82
2022/10/07 07:39:09;;;;;;;13.47;6.97;;;;;;;15.67;83.40;101717.03;1368502;89;21559;-81
2022/10/07 07:41:40;;;;;;;8.07;6.97;;;;;;;15.87;83.33;101714.28;1493278;89;21490;-81
2022/10/07 07:44:10;;;;;;;10.47;6.70;;;;;;;16.09;82.12;101711.17;1382896;89;21642;-78
2022/10/07 07:46:42;;;;;;;9.40;6.20;;;;;;;16.29;82.04;101707.85;1537490;89;21214;-81
2022/10/07 07:49:11;;;;;;;12.73;6.17;;;;;;;16.45;79.61;101708.47;1537375;89;21251;-85
2022/10/07 07:51:41;;;;;;;17.97;6.67;;;;;;;16.59;78.86;101705.23;1447823;89;22359;-86
2022/10/07 07:54:10;;;;;;;8.03;5.85;;;;;;;16.70;77.60;101700.14;1454387;89;22303;-86
2022/10/07 07:56:38;;;;;;;10.77;6.20;;;;;;;16.74;76.65;101700.16;1458259;89;21626;-85
2022/10/07 07:59:07;;;;;;;9.20;5.97;;;;;;;16.85;76.88;101700.43;1455191;89;21602;-87
2022/10/07 08:01:34;;;;;;;7.70;5.60;;;;;;;16.89;76.03;101696.46;1455595;89;21538;-86
2022/10/07 08:04:03;;;;;;;10.07;5.87;;;;;;;17.09;77.27;101693.90;1453555;89;21353;-88
2022/10/07 08:06:31;;;;;;;14.87;5.93;;;;;;;17.26;75.68;101693.95;1438494;89;23426;-86
2022/10/07 08:08:58;;;;;;;9.00;5.97;;;;;;;17.37;75.19;101693.66;1453281;89;21568;-85
2022/10/07 08:11:27;;;;;;;8.27;5.57;;;;;;;17.50;74.58;101691.38;1456129;89;21575;-86
2022/10/07 08:13:55;;;;;;;7.83;5.50;;;;;;;17.64;74.17;101695.28;1445396;89;21478;-87
2022/10/07 08:16:27;;;;;;;9.33;5.63;;;;;;;17.59;69.85;101693.08;1455796;89;21330;-86
2022/10/07 08:18:56;;;;;;;11.75;5.33;;;;;;;17.75;72.21;101693.64;1454295;89;21625;-85
2022/10/07 08:21:31;;;;;;;12.45;5.50;;;;;;;17.80;68.79;101691.82;1385831;89;21391;-86
2022/10/07 08:23:58;;;;;;;9.07;4.60;;;;;;;17.94;70.96;101691.17;1377981;90;21464;-87
2022/10/07 08:26:28;;;;;;;8.98;5.33;;;;;;;18.11;71.31;101688.52;1379414;89;21435;-85
2022/10/07 08:28:56;;;;;;;9.40;4.17;;;;;;;18.32;71.36;101684.83;1378324;89;22049;-84
2022/10/07 08:31:28;;;;;;;8.85;5.10;;;;;;;18.39;69.03;101685.02;1425652;89;22285;-88
2022/10/07 08:33:58;;;;;;;10.50;4.70;;;;;;;18.39;67.75;101685.85;1454033;89;21597;-86
2022/10/07 08:36:28;;;;;;;6.47;4.40;;;;;;;18.49;68.93;101682.48;1457145;89;21663;-85
2022/10/07 08:38:55;;;;;;;6.25;4.70;;;;;;;18.67;67.97;101679.62;1378256;89;21659;-87
2022/10/07 08:41:51;;;;;;;7.92;4.75;;;;;;;18.74;68.48;101676.29;1493786;89;21649;-87
2022/10/07 08:44:34;;;;;;;7.85;4.30;;;;;;;18.79;66.70;101674.77;1417330;89;22227;-87
2022/10/07 08:47:35;;;;;;;10.48;5.45;;;;;;;18.94;66.95;101676.23;1455767;89;22439;-85
2022/10/07 08:50:20;;;;;;;7.25;3.95;;;;;;;19.09;67.92;101677.69;1446293;89;21471;-85
2022/10/07 08:53:00;;;;;;;10.18;4.97;;;;;;;19.25;66.13;101668.72;1454499;89;21442;-86
2022/10/07 08:55:39;;;;;;;7.40;4.50;;;;;;;19.31;64.71;101674.25;1449795;89;22432;-85
2022/10/07 08:58:42;;;;;;;10.95;4.05;;;;;;;19.45;64.17;101668.66;1455663;89;22465;-87
2022/10/07 09:01:24;;;;;;;6.33;3.90;;;;;;;19.43;64.83;101672.52;1455134;89;21368;-87
2022/10/07 09:04:27;;;;;;;9.50;4.65;;;;;;;19.58;65.90;101668.90;1439404;89;21776;-87
2022/10/07 09:07:06;;;;;;;8.58;4.30;;;;;;;19.80;65.31;101669.98;1452594;89;21584;-86
2022/10/07 09:09:42;;;;;;;8.20;4.15;;;;;;;20.08;65.06;101656.50;1451167;89;21597;-85
2022/10/07 09:12:21;;;;;;;9.50;4.53;;;;;;;20.31;62.05;101653.27;1453258;89;21382;-85
2022/10/07 09:14:53;;;;;;;10.78;4.10;;;;;;;21.21;61.71;101642.09;1453821;89;21486;-85
2022/10/07 09:17:38;;;;;;;7.45;4.12;;;;;;;21.21;61.71;101642.09;1455431;89;21428;-86
2022/10/07 09:20:18;;;;;;;7.62;3.45;;;;;;;21.73;60.28;101643.74;1453940;89;21532;-87
2022/10/07 09:22:56;;;;;;;7.22;3.83;;;;;;;22.26;58.29;101636.15;1455547;89;21448;-87
2022/10/07 09:25:27;;;;;;;7.28;4.35;;;;;;;22.60;54.99;101629.14;1456383;89;21707;-85
2022/10/07 09:27:54;;;;;;;6.35;3.65;;;;;;;22.87;54.62;101630.97;1452825;89;21678;-86
2022/10/07 09:30:24;;;;;;;8.08;3.65;;;;;;;23.36;54.22;101629.95;1440220;89;21530;-87
2022/10/07 09:32:54;;;;;;;24.25;5.87;;;;;;;23.62;52.65;101622.92;1425766;89;21574;-86
2022/10/07 09:35:23;;;;;;;;;;;;;;;23.61;52.15;101628.03;1458113;89;21546;-85
2022/10/07 09:38:00;;;;;;;4.67;3.47;;;;;;;23.74;50.54;101625.92;1384884;89;20256;-85
2022/10/07 09:43:31;;;;;;;29.80;10.65;;;;;;;24.31;51.17;101633.42;1466307;89;21390;-85
2022/10/07 09:46:00;;;;;;;8.28;3.00;;;;;;;24.54;49.70;101633.01;1439044;89;21537;-85
2022/10/07 09:48:32;;;;;;;8.20;3.60;;;;;;;24.87;49.78;101621.78;1380096;89;21427;-85
2022/10/07 09:51:24;;;;;;;5.92;3.15;;;;;;;25.14;48.73;101619.29;1480665;89;21764;-87
2022/10/07 09:54:00;;;;;;;7.33;2.90;;;;;;;24.69;45.72;101619.23;1454933;89;21597;-84
2022/10/07 09:56:41;;;;;;;9.85;3.35;;;;;;;24.84;47.80;101620.86;1454925;89;21644;-84
2022/10/07 09:59:25;;;;;;;8.43;4.15;;;;;;;25.05;47.72;101613.78;1396309;93;21450;-85
2022/10/07 10:02:02;;;;;;;8.50;3.27;;;;;;;24.95;47.02;101608.01;1416970;91;21613;-85
2022/10/07 10:04:37;;;;;;;6.37;3.22;;;;;;;24.88;47.55;101611.25;1402961;92;21390;-87
2022/10/07 10:07:08;;;;;;;8.28;3.50;;;;;;;25.17;47.59;101609.91;1406394;92;22523;-86
2022/10/07 10:09:35;;;;;;;9.70;3.75;;;;;;;25.27;47.30;101606.75;1402378;92;21680;-86
2022/10/07 10:12:13;;;;;;;6.53;3.70;;;;;;;25.36;46.97;101602.73;1407439;92;21607;-86
2022/10/07 10:14:44;;;;;;;8.80;3.45;;;;;;;25.60;46.64;101599.23;1413882;91;21416;-87
2022/10/07 10:17:38;;;;;;;3.77;2.85;;;;;;;25.74;46.36;101596.44;1429188;90;21554;-86
2022/10/07 10:20:34;;;;;;;9.63;3.50;;;;;;;25.44;46.24;101598.41;1403893;92;21370;-87
2022/10/07 10:23:22;;;;;;;5.05;3.05;;;;;;;25.50;46.76;101588.05;1393484;92;22415;-88
2022/10/07 10:26:26;;;;;;;15.50;4.78;;;;;;;25.70;46.47;101585.73;1375503;93;21553;-87
2022/10/07 10:29:26;;;;;;;15.25;5.30;;;;;;;25.79;45.90;101589.30;1410596;92;21390;-85
2022/10/07 10:32:23;;;;;;;4.22;2.67;;;;;;;25.95;45.85;101576.27;1414821;92;21851;-84
2022/10/07 10:35:11;;;;;;;3.65;2.90;;;;;;;26.03;45.68;101568.67;1415497;92;21556;-85
2022/10/07 10:38:19;;;;;;;8.55;2.60;;;;;;;25.52;42.58;101566.14;1415071;92;21368;-86
2022/10/07 10:41:01;;;;;;;12.43;3.80;;;;;;;25.70;45.35;101564.88;1415817;92;21485;-88
2022/10/07 10:43:52;;;;;;;4.40;3.15;;;;;;;25.65;42.75;101560.10;1415144;92;21487;-88
2022/10/07 10:46:45;;;;;;;6.15;2.92;;;;;;;25.81;44.98;101556.55;1414857;91;21545;-85
2022/10/07 10:49:53;;;;;;;4.10;2.92;;;;;;;25.99;44.56;101555.80;1416049;91;21435;-87
2022/10/07 10:53:00;;;;;;;6.08;3.20;;;;;;;26.22;44.08;101547.02;1414825;91;22484;-87
2022/10/07 10:55:36;;;;;;;6.70;4.00;;;;;;;26.29;43.67;101543.16;1414622;91;21375;-87
2022/10/07 10:58:18;;;;;;;9.65;3.30;;;;;;;26.37;43.36;101539.33;1395521;93;22625;-87
2022/10/07 11:01:18;;;;;;;6.12;3.05;;;;;;;26.49;43.27;101548.91;1395699;92;21524;-87
2022/10/07 11:04:19;;;;;;;11.90;3.27;;;;;;;26.65;42.45;101543.45;1340425;97;21533;-85
2022/10/07 11:07:00;;;;;;;4.53;2.90;;;;;;;26.45;42.30;101534.14;1357691;96;21501;-82
2022/10/07 11:09:41;;;;;;;6.22;3.30;;;;;;;26.56;41.92;101532.06;1357349;96;22611;-85
2022/10/07 11:12:32;;;;;;;7.65;3.00;;;;;;;26.87;41.45;101525.59;1356937;96;21444;-82
2022/10/07 11:15:07;;;;;;;6.45;3.42;;;;;;;27.06;41.13;101522.84;1357703;96;21688;-86
2022/10/07 11:17:36;;;;;;;4.62;2.92;;;;;;;27.07;40.89;101517.16;1357809;95;21875;-84
2022/10/07 11:20:15;;;;;;;4.80;2.98;;;;;;;27.12;40.45;101511.05;1357010;96;21643;-85
2022/10/07 11:22:47;;;;;;;6.35;2.80;;;;;;;26.88;38.66;101506.08;1358758;96;21554;-86
2022/10/07 11:25:26;;;;;;;3.75;2.67;;;;;;;26.62;38.33;101501.29;1336222;98;21678;-87
2022/10/07 11:27:59;;;;;;;4.33;3.05;;;;;;;26.99;40.60;101503.94;1357133;96;21693;-87
2022/10/07 11:30:34;;;;;;;6.65;2.75;;;;;;;27.23;40.17;101499.42;1348332;96;21479;-88
2022/10/07 11:33:09;;;;;;;5.55;2.72;;;;;;;27.36;39.85;101496.52;1415235;96;21645;-88
2022/10/07 11:35:56;;;;;;;5.08;3.15;;;;;;;27.55;39.79;101493.69;1390266;93;21609;-87
2022/10/07 11:38:32;;;;;;;6.20;3.08;;;;;;;27.66;39.60;101486.89;1396244;93;21622;-87
2022/10/07 11:41:14;;;;;;;6.60;3.10;;;;;;;27.85;39.37;101478.64;1414130;92;21769;-87
2022/10/07 11:43:45;;;;;;;8.00;3.50;;;;;;;27.79;38.07;101479.05;1416633;92;21656;-86
2022/10/07 11:46:37;;;;;;;4.78;3.10;;;;;;;27.35;37.68;101466.83;1417825;92;21515;-86
2022/10/07 11:49:16;;;;;;;23.00;4.03;;;;;;;27.56;38.96;101459.98;1415976;92;21661;-87
2022/10/07 11:52:07;;;;;;;7.05;3.37;;;;;;;27.83;37.55;101466.66;1417685;92;22755;-86
2022/10/07 11:54:42;;;;;;;5.22;2.85;;;;;;;28.07;38.12;101463.91;1414436;92;22075;-86
2022/10/07 11:57:22;;;;;;;8.08;3.33;;;;;;;28.24;38.16;101464.81;1416567;91;21419;-85